This is the latest recevied weather packets stored in our database for station/object W0AKY-13. If no packets are shown the sender has not sent any weather packets the latest 10 day(s).
| Time | Temp. | Humidity | Pressure | Rain* | Wind** | Luminosity | Snow |
|---|---|---|---|---|---|---|---|
| 1777864521 | 13.89° C | 74% | 1009.9 hPa | 0 mm | - | 0 W/m² | - |
| 1777864216 | 13.89° C | 74% | 1009.8 hPa | 0 mm | - | 0 W/m² | - |
| 1777863914 | 13.89° C | 74% | 1010 hPa | 0 mm | - | 0 W/m² | - |
| 1777863610 | 13.89° C | 68% | 1010 hPa | 0 mm | - | 0 W/m² | - |
| 1777863307 | 14.44° C | 67% | 1010 hPa | 0 mm | - | 0 W/m² | - |
| 1777863004 | 14.44° C | 68% | 1010 hPa | 0 mm | - | 0 W/m² | - |
| 1777862701 | 14.44° C | 67% | 1010.3 hPa | 0 mm | - | 0 W/m² | - |
| 1777862398 | 14.44° C | 69% | 1010.2 hPa | 0 mm | - | 0 W/m² | - |
| 1777862095 | 15° C | 69% | 1010.2 hPa | 0 mm | - | 0 W/m² | - |
| 1777861790 | 15° C | 66% | 1010 hPa | 0 mm | - | 0 W/m² | - |
| 1777861486 | 15° C | 66% | 1010.1 hPa | 0 mm | - | 0 W/m² | - |
| 1777861183 | 15° C | 63% | 1010.2 hPa | 0 mm | - | 0 W/m² | - |
| 1777860881 | 15.56° C | 68% | 1010 hPa | 0 mm | - | 0 W/m² | - |
| 1777860578 | 15.56° C | 63% | 1010 hPa | 0 mm | - | 0 W/m² | - |
| 1777860274 | 16.11° C | 66% | 1009.9 hPa | 0 mm | - | 0 W/m² | - |
| 1777859971 | 16.11° C | 64% | 1010.1 hPa | 0 mm | - | 0 W/m² | - |
| 1777859667 | 16.11° C | 57% | 1009.9 hPa | 0 mm | - | 0 W/m² | - |
| 1777859363 | 16.67° C | 56% | 1009.7 hPa | 0 mm | - | 0 W/m² | - |
| 1777859059 | 16.67° C | 56% | 1009.9 hPa | 0 mm | - | 0 W/m² | - |
| 1777858756 | 17.22° C | 59% | 1009.8 hPa | 0 mm | - | 0 W/m² | - |
| 1777858455 | 17.78° C | 59% | 1010.1 hPa | 0 mm | - | 0 W/m² | - |
| 1777858150 | 18.33° C | 60% | 1009.8 hPa | 0 mm | - | 1 W/m² | - |
| 1777857849 | 18.33° C | 50% | 1010.3 hPa | 0 mm | - | 1 W/m² | - |
| 1777857545 | 18.89° C | 50% | 1010.2 hPa | 0 mm | - | 2 W/m² | - |
| 1777857243 | 19.44° C | 50% | 1010.2 hPa | 0 mm | - | 3 W/m² | - |
* Rain latest hour (hover to see other rain measurements)
** Current wind speed in m/s (hover to see current wind gust speed)